Relevés horaires Oostende (Belgique)


Relevés horaires à Oostende - Mercredi 10 Nov. 2021
Heure UTC1 Température [°C] Vent [km/h] Hum. [%] Pres.4 [hPa] Visi. [Km] Nébu. [octa] Préc.5 [mm] Cond.
2m. Res. Ros. Dir.2 Vit. Moy. Raf.3
23:00 8.7 8.7 6.9 S 3.7 5.6 5.6 88 1024.6(0.2/3h) 8 7/8 -- --
22:00 8.6 8.6 6.9 S 3.7 3.7 5.6 89 1024.8(0.0/3h) 7 7/8 -- --
21:00 8.7 8.7 6.2 SSO 1.9 7.4 11.1 84 1024.7(-0.1/3h) 9 7/8 -- --
20:00 8.7 7.6 6.2 S 7.4 7.4 9.3 84 1024.4(0.0/3h) 9 7/8 -- --
19:00 8.8 8.8 6.8 S 3.7 3.7 5.6 87 1024.8(0.7/3h) 9 7/8 -- --
18:00 8.9 8.9 6.8 S 3.7 -- -- 87 1024.7(0.6/3h) 9 7/8 0/12h
--
17:00 9.1 9.1 6.9 S 3.7 3.7 5.6 86 1024.5(0.5/3h) 8 7/8 -- --
16:00 9.1 9.1 6.9 S 3.7 3.7 5.6 86 1024.2(-0.1/3h) 9 7/8 -- --
15:00 9.0 9.0 6.7 S 3.7 5.6 7.4 85 1024.1(-0.5/3h) 9 7/8 -- --
14:00 9.0 9.0 7.0 S 3.7 5.6 5.6 87 1024(-0.7/3h) 9 7/8 -- --
13:00 9.3 9.3 6.9 S 3.7 5.6 7.4 85 1024.2(-0.7/3h) 10 7/8 -- --
12:00 9.3 9.3 6.8 S 3.7 -- -- 84 1024.5(-0.5/3h) 15 7/8 0/6h
--
11:00 8.9 8.3 6.1 SSO 5.6 5.6 7.4 83 1024.7(0.3/3h) 15 7/8 -- --
10:00 7.8 7.8 5.0 S 3.7 7.4 9.3 82 1024.9(0.2/3h) 15 7/8 -- --
09:00 6.9 5.5 4.3 SSE 7.4 9.3 11.1 83 1025(0.8/3h) 15 7/8 -- --
08:00 6.6 5.7 4.0 OSO 5.6 7.4 11.1 83 1024.4(0.2/3h) 18 5/8 -- --
07:00 6.7 5.8 3.7 S 5.6 7.4 9.3 81 1024.6(0.7/3h) 15 7/8 -- --
06:00 7.0 6.1 4.6 S 5.6 -- -- 85 1024.2(0.5/3h) 14 7/8 0/12h
--
05:00 7.1 6.3 5.6 S 5.6 5.6 9.3 90 1024.2(0.0/3h) 12 8/8 -- --
04:00 7.3 6.5 5.9 S 5.6 7.4 9.3 91 1023.9(-1.0/3h) 12 8/8 -- --
03:00 7.7 7.7 6.3 S 3.7 7.4 9.3 91 1023.8(-1.6/3h) 10 8/8 -- --
02:00 8.1 7.4 6.8 SSE 5.6 5.6 7.4 91 1024.2(-1.3/3h) 10 8/8 -- --
01:00 8.5 8.5 7.1 SSO 3.7 5.6 9.3 91 1024.9(-0.6/3h) 12 8/8 -- --
00:00 8.8 8.2 7.1 S 5.6 -- -- 89 1025.3(-0.1/3h) 12 8/8 0/6h
0/24h
--

1 Coordinated Universal Time. Actuellement il est 05:00 locale et 03:00 UTC.

2 Le vent souffle depuis la direction indiquée vers la direction oposée.

3 Les rafales max. sont disponible 40 min après l'heure du relevé.

4 Pour les stations d'altitude (plus de 600m) le géopotentiel du niveau le plus proche de la pression obligatoire est indiqué.

5 Les stations disposant d'un diffuseur peuvent indiquer "trace". Cela signifie que des précipitations ont touchés le sol mais que la quantité est inférieure à 0.1 mm.

Récapitulatif de la journée
Température [°C] Vent [km/h] Ensoleillement4 [h] Precipitations totale5 [mm] Pression [Hpa]
Min1 Max.2 Moy.3 Max. Min Max.
7.0 9.4 6 11.1 0 h 0 min 0 1023.8 1025.3

1 Température minimale relevée entre 18:00 UTC la veille et 18:00 UTC le jour donné.

2 Température maximale relevée entre 06:00 UTC le jour donné et 06:00 UTC le lendemain.

3 Vent moyen de la journée basé sur les relevés horaires.

4 Ensoleillement en heures relevé entre 06:00 UTC la veille et 06:00 UTC le jour donné.

5 Précipitations totales tombées entre 06:00 UTC la jour donné et 06:00 UTC le lendemain.

Graphiques horaires